sensor_id;sensor_type;location;lat;lon;timestamp;temperature;humidity
2647;DHT22;1333;50.958;6.770;2023-07-29T00:02:00;20.00;99.90
2647;DHT22;1333;50.958;6.770;2023-07-29T00:04:26;20.00;99.90
2647;DHT22;1333;50.958;6.770;2023-07-29T00:06:51;20.00;99.90
2647;DHT22;1333;50.958;6.770;2023-07-29T00:09:17;20.00;99.90
2647;DHT22;1333;50.958;6.770;2023-07-29T00:11:42;20.00;99.90
2647;DHT22;1333;50.958;6.770;2023-07-29T00:14:08;20.00;99.90
2647;DHT22;1333;50.958;6.770;2023-07-29T00:16:33;20.00;99.90
2647;DHT22;1333;50.958;6.770;2023-07-29T00:18:59;20.00;99.90
2647;DHT22;1333;50.958;6.770;2023-07-29T00:21:24;20.00;99.90
2647;DHT22;1333;50.958;6.770;2023-07-29T00:23:50;20.00;99.90
2647;DHT22;1333;50.958;6.770;2023-07-29T00:26:15;20.00;99.90
2647;DHT22;1333;50.958;6.770;2023-07-29T00:28:41;20.00;99.90
2647;DHT22;1333;50.958;6.770;2023-07-29T00:31:06;20.00;99.90
2647;DHT22;1333;50.958;6.770;2023-07-29T00:33:32;20.00;99.90
2647;DHT22;1333;50.958;6.770;2023-07-29T00:35:57;20.00;99.90
2647;DHT22;1333;50.958;6.770;2023-07-29T00:38:27;20.10;99.90
2647;DHT22;1333;50.958;6.770;2023-07-29T00:40:52;20.10;99.90
2647;DHT22;1333;50.958;6.770;2023-07-29T00:43:18;20.10;99.90
2647;DHT22;1333;50.958;6.770;2023-07-29T00:45:44;20.00;99.90
2647;DHT22;1333;50.958;6.770;2023-07-29T00:48:10;20.00;99.90
2647;DHT22;1333;50.958;6.770;2023-07-29T00:50:35;20.00;99.90
2647;DHT22;1333;50.958;6.770;2023-07-29T00:53:01;20.00;99.90
2647;DHT22;1333;50.958;6.770;2023-07-29T00:55:27;20.00;99.90
2647;DHT22;1333;50.958;6.770;2023-07-29T00:57:54;20.00;99.90
2647;DHT22;1333;50.958;6.770;2023-07-29T01:00:20;20.10;99.90
2647;DHT22;1333;50.958;6.770;2023-07-29T01:02:46;20.10;99.90
2647;DHT22;1333;50.958;6.770;2023-07-29T01:05:13;20.10;99.90
2647;DHT22;1333;50.958;6.770;2023-07-29T01:13:37;20.00;99.90
2647;DHT22;1333;50.958;6.770;2023-07-29T01:16:17;20.10;99.90
2647;DHT22;1333;50.958;6.770;2023-07-29T01:18:47;20.10;99.90
2647;DHT22;1333;50.958;6.770;2023-07-29T01:21:14;20.10;99.90
2647;DHT22;1333;50.958;6.770;2023-07-29T01:23:41;20.20;99.90
2647;DHT22;1333;50.958;6.770;2023-07-29T01:26:06;20.20;99.90
2647;DHT22;1333;50.958;6.770;2023-07-29T01:28:32;20.20;99.90
2647;DHT22;1333;50.958;6.770;2023-07-29T01:31:12;20.20;99.90
2647;DHT22;1333;50.958;6.770;2023-07-29T01:33:48;20.20;99.90
2647;DHT22;1333;50.958;6.770;2023-07-29T01:36:21;20.30;99.90
2647;DHT22;1333;50.958;6.770;2023-07-29T01:38:49;20.30;99.90
2647;DHT22;1333;50.958;6.770;2023-07-29T01:41:17;20.30;99.90
2647;DHT22;1333;50.958;6.770;2023-07-29T01:43:43;20.30;99.90
2647;DHT22;1333;50.958;6.770;2023-07-29T01:46:10;20.30;99.90
2647;DHT22;1333;50.958;6.770;2023-07-29T01:48:37;20.30;99.90
2647;DHT22;1333;50.958;6.770;2023-07-29T01:51:03;20.30;99.90
2647;DHT22;1333;50.958;6.770;2023-07-29T01:53:29;20.30;99.90
2647;DHT22;1333;50.958;6.770;2023-07-29T01:55:54;20.30;99.90
2647;DHT22;1333;50.958;6.770;2023-07-29T01:58:20;20.20;99.90
2647;DHT22;1333;50.958;6.770;2023-07-29T02:00:45;20.20;99.90
2647;DHT22;1333;50.958;6.770;2023-07-29T02:03:11;20.20;99.90
2647;DHT22;1333;50.958;6.770;2023-07-29T02:05:36;20.20;99.90
2647;DHT22;1333;50.958;6.770;2023-07-29T02:08:02;20.10;99.90
2647;DHT22;1333;50.958;6.770;2023-07-29T02:10:27;20.10;99.90
2647;DHT22;1333;50.958;6.770;2023-07-29T02:12:53;20.00;99.90
2647;DHT22;1333;50.958;6.770;2023-07-29T02:15:18;20.00;99.90
2647;DHT22;1333;50.958;6.770;2023-07-29T02:17:44;20.00;99.90
2647;DHT22;1333;50.958;6.770;2023-07-29T02:20:10;19.90;99.90
2647;DHT22;1333;50.958;6.770;2023-07-29T02:22:36;19.90;99.90
2647;DHT22;1333;50.958;6.770;2023-07-29T02:25:01;19.80;99.90
2647;DHT22;1333;50.958;6.770;2023-07-29T02:27:28;19.90;99.90
2647;DHT22;1333;50.958;6.770;2023-07-29T02:29:53;19.80;99.90
2647;DHT22;1333;50.958;6.770;2023-07-29T02:32:20;19.80;99.90
2647;DHT22;1333;50.958;6.770;2023-07-29T02:34:45;19.90;99.90
2647;DHT22;1333;50.958;6.770;2023-07-29T02:37:11;19.90;99.90
2647;DHT22;1333;50.958;6.770;2023-07-29T02:39:37;19.90;99.90
2647;DHT22;1333;50.958;6.770;2023-07-29T02:42:02;19.80;99.90
2647;DHT22;1333;50.958;6.770;2023-07-29T02:44:28;19.80;99.90
2647;DHT22;1333;50.958;6.770;2023-07-29T02:46:54;19.80;99.90
2647;DHT22;1333;50.958;6.770;2023-07-29T02:49:21;19.70;99.90
2647;DHT22;1333;50.958;6.770;2023-07-29T02:51:47;19.70;99.90
2647;DHT22;1333;50.958;6.770;2023-07-29T02:54:12;19.70;99.90
2647;DHT22;1333;50.958;6.770;2023-07-29T02:56:38;19.70;99.90
2647;DHT22;1333;50.958;6.770;2023-07-29T02:59:03;19.70;99.90
2647;DHT22;1333;50.958;6.770;2023-07-29T03:01:30;19.70;99.90
2647;DHT22;1333;50.958;6.770;2023-07-29T03:03:55;19.70;99.90
2647;DHT22;1333;50.958;6.770;2023-07-29T03:06:21;19.70;99.90
2647;DHT22;1333;50.958;6.770;2023-07-29T03:08:46;19.60;99.90
2647;DHT22;1333;50.958;6.770;2023-07-29T03:11:13;19.60;99.90
2647;DHT22;1333;50.958;6.770;2023-07-29T03:13:39;19.60;99.90
2647;DHT22;1333;50.958;6.770;2023-07-29T03:16:15;19.60;99.90
2647;DHT22;1333;50.958;6.770;2023-07-29T03:18:42;19.70;99.90
2647;DHT22;1333;50.958;6.770;2023-07-29T03:21:08;19.70;99.90
2647;DHT22;1333;50.958;6.770;2023-07-29T03:23:34;19.80;99.90
2647;DHT22;1333;50.958;6.770;2023-07-29T03:26:01;19.80;99.90
2647;DHT22;1333;50.958;6.770;2023-07-29T03:28:32;19.80;99.90
2647;DHT22;1333;50.958;6.770;2023-07-29T03:30:58;19.80;99.90
2647;DHT22;1333;50.958;6.770;2023-07-29T03:33:25;19.80;99.90
2647;DHT22;1333;50.958;6.770;2023-07-29T03:35:51;19.70;99.90
2647;DHT22;1333;50.958;6.770;2023-07-29T03:38:16;19.80;99.90
2647;DHT22;1333;50.958;6.770;2023-07-29T03:40:42;19.80;99.90
2647;DHT22;1333;50.958;6.770;2023-07-29T03:43:08;19.80;99.90
2647;DHT22;1333;50.958;6.770;2023-07-29T03:45:35;19.70;99.90
2647;DHT22;1333;50.958;6.770;2023-07-29T03:48:01;19.70;99.90
2647;DHT22;1333;50.958;6.770;2023-07-29T03:50:28;19.70;99.90
2647;DHT22;1333;50.958;6.770;2023-07-29T03:52:54;19.70;99.90
2647;DHT22;1333;50.958;6.770;2023-07-29T03:55:20;19.60;99.90
2647;DHT22;1333;50.958;6.770;2023-07-29T03:57:46;19.60;99.90
2647;DHT22;1333;50.958;6.770;2023-07-29T04:00:11;19.60;99.90
2647;DHT22;1333;50.958;6.770;2023-07-29T04:02:37;19.60;99.90
2647;DHT22;1333;50.958;6.770;2023-07-29T04:05:04;19.60;99.90
2647;DHT22;1333;50.958;6.770;2023-07-29T04:07:30;19.60;99.90
2647;DHT22;1333;50.958;6.770;2023-07-29T04:09:56;19.50;99.90
2647;DHT22;1333;50.958;6.770;2023-07-29T04:12:22;19.50;99.90
2647;DHT22;1333;50.958;6.770;2023-07-29T04:14:48;19.40;99.90
2647;DHT22;1333;50.958;6.770;2023-07-29T04:17:14;19.40;99.90
2647;DHT22;1333;50.958;6.770;2023-07-29T04:19:39;19.30;99.90
2647;DHT22;1333;50.958;6.770;2023-07-29T04:22:05;19.30;99.90
2647;DHT22;1333;50.958;6.770;2023-07-29T04:24:31;19.30;99.90
2647;DHT22;1333;50.958;6.770;2023-07-29T04:26:56;19.40;99.90
2647;DHT22;1333;50.958;6.770;2023-07-29T04:29:22;19.40;99.90
2647;DHT22;1333;50.958;6.770;2023-07-29T04:31:49;19.40;99.90
2647;DHT22;1333;50.958;6.770;2023-07-29T04:34:14;19.40;99.90
2647;DHT22;1333;50.958;6.770;2023-07-29T04:36:40;19.40;99.90
2647;DHT22;1333;50.958;6.770;2023-07-29T04:39:05;19.40;99.90
2647;DHT22;1333;50.958;6.770;2023-07-29T04:41:31;19.40;99.90
2647;DHT22;1333;50.958;6.770;2023-07-29T04:43:56;19.40;99.90
2647;DHT22;1333;50.958;6.770;2023-07-29T04:46:22;19.40;99.90
2647;DHT22;1333;50.958;6.770;2023-07-29T04:48:47;19.50;99.90
2647;DHT22;1333;50.958;6.770;2023-07-29T04:51:13;19.50;99.90
2647;DHT22;1333;50.958;6.770;2023-07-29T04:53:38;19.50;99.90
2647;DHT22;1333;50.958;6.770;2023-07-29T04:56:04;19.60;99.90
2647;DHT22;1333;50.958;6.770;2023-07-29T04:58:30;19.60;99.90
2647;DHT22;1333;50.958;6.770;2023-07-29T05:00:56;19.60;99.90
2647;DHT22;1333;50.958;6.770;2023-07-29T05:03:21;19.70;99.90
2647;DHT22;1333;50.958;6.770;2023-07-29T05:05:47;19.70;99.90
2647;DHT22;1333;50.958;6.770;2023-07-29T05:08:12;19.70;99.90
2647;DHT22;1333;50.958;6.770;2023-07-29T05:10:38;19.80;99.90
2647;DHT22;1333;50.958;6.770;2023-07-29T05:13:03;19.80;99.90
2647;DHT22;1333;50.958;6.770;2023-07-29T05:15:29;19.80;99.90
2647;DHT22;1333;50.958;6.770;2023-07-29T05:17:55;19.90;99.90
2647;DHT22;1333;50.958;6.770;2023-07-29T05:20:21;20.00;99.90
2647;DHT22;1333;50.958;6.770;2023-07-29T05:22:46;20.10;99.90
2647;DHT22;1333;50.958;6.770;2023-07-29T05:25:12;20.20;99.90
2647;DHT22;1333;50.958;6.770;2023-07-29T05:27:37;20.20;99.90
2647;DHT22;1333;50.958;6.770;2023-07-29T05:30:03;20.20;99.90
2647;DHT22;1333;50.958;6.770;2023-07-29T05:32:29;20.20;99.90
2647;DHT22;1333;50.958;6.770;2023-07-29T05:34:55;20.20;99.90
2647;DHT22;1333;50.958;6.770;2023-07-29T05:37:20;20.20;99.90
2647;DHT22;1333;50.958;6.770;2023-07-29T05:39:46;20.20;99.90
2647;DHT22;1333;50.958;6.770;2023-07-29T05:42:11;20.10;99.90
2647;DHT22;1333;50.958;6.770;2023-07-29T05:44:37;20.10;99.90
2647;DHT22;1333;50.958;6.770;2023-07-29T05:47:02;20.10;99.90
2647;DHT22;1333;50.958;6.770;2023-07-29T05:49:28;20.20;99.90
2647;DHT22;1333;50.958;6.770;2023-07-29T05:51:53;20.20;99.90
2647;DHT22;1333;50.958;6.770;2023-07-29T05:54:19;20.30;99.90
2647;DHT22;1333;50.958;6.770;2023-07-29T05:56:45;20.40;99.90
2647;DHT22;1333;50.958;6.770;2023-07-29T05:59:10;20.40;99.90
2647;DHT22;1333;50.958;6.770;2023-07-29T06:01:36;20.50;99.90
2647;DHT22;1333;50.958;6.770;2023-07-29T06:04:01;20.50;99.90
2647;DHT22;1333;50.958;6.770;2023-07-29T06:06:27;20.60;99.90
2647;DHT22;1333;50.958;6.770;2023-07-29T06:08:52;20.70;99.90
2647;DHT22;1333;50.958;6.770;2023-07-29T06:11:18;20.70;99.90
2647;DHT22;1333;50.958;6.770;2023-07-29T06:13:43;20.80;99.90
2647;DHT22;1333;50.958;6.770;2023-07-29T06:16:09;20.80;99.90
2647;DHT22;1333;50.958;6.770;2023-07-29T06:18:34;20.90;99.90
2647;DHT22;1333;50.958;6.770;2023-07-29T06:21:00;20.90;99.90
2647;DHT22;1333;50.958;6.770;2023-07-29T06:23:25;20.90;99.90
2647;DHT22;1333;50.958;6.770;2023-07-29T06:25:51;21.00;99.90
2647;DHT22;1333;50.958;6.770;2023-07-29T06:28:16;21.00;99.90
2647;DHT22;1333;50.958;6.770;2023-07-29T06:30:42;21.20;99.90
2647;DHT22;1333;50.958;6.770;2023-07-29T06:33:08;21.20;99.90
2647;DHT22;1333;50.958;6.770;2023-07-29T06:35:34;21.30;99.90
2647;DHT22;1333;50.958;6.770;2023-07-29T06:37:59;21.30;99.90
2647;DHT22;1333;50.958;6.770;2023-07-29T06:40:25;21.30;99.90
2647;DHT22;1333;50.958;6.770;2023-07-29T06:42:50;21.30;99.90
2647;DHT22;1333;50.958;6.770;2023-07-29T06:45:16;21.40;99.90
2647;DHT22;1333;50.958;6.770;2023-07-29T06:47:41;21.40;99.90
2647;DHT22;1333;50.958;6.770;2023-07-29T06:50:07;21.50;99.90
2647;DHT22;1333;50.958;6.770;2023-07-29T06:52:33;21.70;99.90
2647;DHT22;1333;50.958;6.770;2023-07-29T06:54:58;22.20;99.90
2647;DHT22;1333;50.958;6.770;2023-07-29T06:57:24;22.70;99.90
2647;DHT22;1333;50.958;6.770;2023-07-29T06:59:49;23.10;99.90
2647;DHT22;1333;50.958;6.770;2023-07-29T07:02:15;23.50;99.90
2647;DHT22;1333;50.958;6.770;2023-07-29T07:04:40;24.30;99.90
2647;DHT22;1333;50.958;6.770;2023-07-29T07:07:06;25.60;99.90
2647;DHT22;1333;50.958;6.770;2023-07-29T07:09:31;26.60;99.90
2647;DHT22;1333;50.958;6.770;2023-07-29T07:11:57;26.90;99.90
2647;DHT22;1333;50.958;6.770;2023-07-29T07:14:22;27.00;99.90
2647;DHT22;1333;50.958;6.770;2023-07-29T07:16:48;27.20;99.90
2647;DHT22;1333;50.958;6.770;2023-07-29T07:19:13;27.40;99.90
2647;DHT22;1333;50.958;6.770;2023-07-29T07:21:39;27.10;99.90
2647;DHT22;1333;50.958;6.770;2023-07-29T07:24:04;26.70;99.90
2647;DHT22;1333;50.958;6.770;2023-07-29T07:26:30;26.40;99.90
2647;DHT22;1333;50.958;6.770;2023-07-29T07:28:55;26.40;99.90
2647;DHT22;1333;50.958;6.770;2023-07-29T07:31:21;27.00;99.90
2647;DHT22;1333;50.958;6.770;2023-07-29T07:33:47;28.10;99.90
2647;DHT22;1333;50.958;6.770;2023-07-29T07:36:13;29.00;99.90
2647;DHT22;1333;50.958;6.770;2023-07-29T07:38:38;29.20;99.90
2647;DHT22;1333;50.958;6.770;2023-07-29T07:41:04;28.80;99.90
2647;DHT22;1333;50.958;6.770;2023-07-29T07:43:29;28.30;99.90
2647;DHT22;1333;50.958;6.770;2023-07-29T07:45:59;27.90;99.90
2647;DHT22;1333;50.958;6.770;2023-07-29T07:48:25;27.40;99.90
2647;DHT22;1333;50.958;6.770;2023-07-29T07:50:51;27.00;99.90
2647;DHT22;1333;50.958;6.770;2023-07-29T07:53:16;26.70;99.90
2647;DHT22;1333;50.958;6.770;2023-07-29T07:55:42;26.40;99.90
2647;DHT22;1333;50.958;6.770;2023-07-29T07:58:07;26.50;99.90
2647;DHT22;1333;50.958;6.770;2023-07-29T08:00:33;26.90;99.90
2647;DHT22;1333;50.958;6.770;2023-07-29T08:02:58;26.90;99.90
2647;DHT22;1333;50.958;6.770;2023-07-29T08:05:24;26.50;99.90
2647;DHT22;1333;50.958;6.770;2023-07-29T08:07:49;26.70;99.90
2647;DHT22;1333;50.958;6.770;2023-07-29T08:10:15;28.10;99.90
2647;DHT22;1333;50.958;6.770;2023-07-29T08:12:40;30.80;99.90
2647;DHT22;1333;50.958;6.770;2023-07-29T08:15:06;33.50;99.90
2647;DHT22;1333;50.958;6.770;2023-07-29T08:17:32;34.20;96.00
2647;DHT22;1333;50.958;6.770;2023-07-29T08:19:57;35.00;90.50
2647;DHT22;1333;50.958;6.770;2023-07-29T08:22:23;35.40;77.70
2647;DHT22;1333;50.958;6.770;2023-07-29T08:24:48;35.40;66.10
2647;DHT22;1333;50.958;6.770;2023-07-29T08:27:14;34.70;58.50
2647;DHT22;1333;50.958;6.770;2023-07-29T08:29:39;33.90;57.10
2647;DHT22;1333;50.958;6.770;2023-07-29T08:32:05;32.90;54.50
2647;DHT22;1333;50.958;6.770;2023-07-29T08:34:31;32.00;56.90
2647;DHT22;1333;50.958;6.770;2023-07-29T08:36:56;31.20;59.50
2647;DHT22;1333;50.958;6.770;2023-07-29T08:39:22;30.60;61.30
2647;DHT22;1333;50.958;6.770;2023-07-29T08:44:27;29.00;65.90
2647;DHT22;1333;50.958;6.770;2023-07-29T08:46:54;28.40;68.70
2647;DHT22;1333;50.958;6.770;2023-07-29T08:49:23;27.90;71.50
2647;DHT22;1333;50.958;6.770;2023-07-29T08:51:50;27.30;75.20
2647;DHT22;1333;50.958;6.770;2023-07-29T08:54:18;27.00;82.30
2647;DHT22;1333;50.958;6.770;2023-07-29T08:56:45;26.90;90.80
2647;DHT22;1333;50.958;6.770;2023-07-29T08:59:11;26.60;92.10
2647;DHT22;1333;50.958;6.770;2023-07-29T09:01:41;26.30;95.10
2647;DHT22;1333;50.958;6.770;2023-07-29T09:04:07;26.10;99.90
2647;DHT22;1333;50.958;6.770;2023-07-29T09:06:33;25.70;99.90
2647;DHT22;1333;50.958;6.770;2023-07-29T09:09:01;25.40;99.90
2647;DHT22;1333;50.958;6.770;2023-07-29T09:11:28;25.20;99.90
2647;DHT22;1333;50.958;6.770;2023-07-29T09:13:54;25.30;99.90
2647;DHT22;1333;50.958;6.770;2023-07-29T09:16:20;25.20;99.90
2647;DHT22;1333;50.958;6.770;2023-07-29T09:18:50;25.40;99.90
2647;DHT22;1333;50.958;6.770;2023-07-29T09:21:18;25.50;99.90
2647;DHT22;1333;50.958;6.770;2023-07-29T09:23:47;25.60;99.90
2647;DHT22;1333;50.958;6.770;2023-07-29T09:26:22;25.90;99.90
2647;DHT22;1333;50.958;6.770;2023-07-29T09:28:52;26.20;99.90
2647;DHT22;1333;50.958;6.770;2023-07-29T09:31:20;26.50;99.90
2647;DHT22;1333;50.958;6.770;2023-07-29T09:33:46;26.70;99.90
2647;DHT22;1333;50.958;6.770;2023-07-29T09:36:11;26.80;99.90
2647;DHT22;1333;50.958;6.770;2023-07-29T09:38:38;26.70;99.90
2647;DHT22;1333;50.958;6.770;2023-07-29T09:41:03;26.80;99.90
2647;DHT22;1333;50.958;6.770;2023-07-29T09:43:33;26.70;99.90
2647;DHT22;1333;50.958;6.770;2023-07-29T09:46:03;26.60;99.90
2647;DHT22;1333;50.958;6.770;2023-07-29T09:48:32;26.40;99.90
2647;DHT22;1333;50.958;6.770;2023-07-29T09:50:58;26.30;99.90
2647;DHT22;1333;50.958;6.770;2023-07-29T09:53:24;26.40;99.90
2647;DHT22;1333;50.958;6.770;2023-07-29T09:55:50;26.60;99.90
2647;DHT22;1333;50.958;6.770;2023-07-29T09:58:19;26.70;99.90
2647;DHT22;1333;50.958;6.770;2023-07-29T10:00:51;27.20;99.90
2647;DHT22;1333;50.958;6.770;2023-07-29T10:03:18;27.70;99.90
2647;DHT22;1333;50.958;6.770;2023-07-29T10:05:44;27.70;99.90
2647;DHT22;1333;50.958;6.770;2023-07-29T10:08:10;27.60;99.90
2647;DHT22;1333;50.958;6.770;2023-07-29T10:10:37;27.60;99.90
2647;DHT22;1333;50.958;6.770;2023-07-29T10:13:03;27.40;99.90
2647;DHT22;1333;50.958;6.770;2023-07-29T10:15:29;27.10;99.90
2647;DHT22;1333;50.958;6.770;2023-07-29T10:17:55;26.50;99.90
2647;DHT22;1333;50.958;6.770;2023-07-29T10:20:21;25.90;99.90
2647;DHT22;1333;50.958;6.770;2023-07-29T10:22:48;25.30;99.90
2647;DHT22;1333;50.958;6.770;2023-07-29T10:25:24;25.00;99.90
2647;DHT22;1333;50.958;6.770;2023-07-29T10:27:56;24.80;99.90
2647;DHT22;1333;50.958;6.770;2023-07-29T10:30:24;24.70;99.90
2647;DHT22;1333;50.958;6.770;2023-07-29T10:32:50;24.90;99.90
2647;DHT22;1333;50.958;6.770;2023-07-29T10:35:17;25.20;99.90
2647;DHT22;1333;50.958;6.770;2023-07-29T10:37:43;25.60;99.90
2647;DHT22;1333;50.958;6.770;2023-07-29T10:40:11;25.80;99.90
2647;DHT22;1333;50.958;6.770;2023-07-29T10:42:38;26.00;99.90
2647;DHT22;1333;50.958;6.770;2023-07-29T10:45:18;26.10;99.90
2647;DHT22;1333;50.958;6.770;2023-07-29T10:47:44;26.00;99.90
2647;DHT22;1333;50.958;6.770;2023-07-29T10:50:21;25.80;99.90
2647;DHT22;1333;50.958;6.770;2023-07-29T10:52:52;25.70;99.90
2647;DHT22;1333;50.958;6.770;2023-07-29T10:55:35;25.50;99.90
2647;DHT22;1333;50.958;6.770;2023-07-29T10:58:15;25.40;99.90
2647;DHT22;1333;50.958;6.770;2023-07-29T11:00:43;26.40;99.90
2647;DHT22;1333;50.958;6.770;2023-07-29T11:03:09;29.00;99.90
2647;DHT22;1333;50.958;6.770;2023-07-29T11:05:45;31.40;99.90
2647;DHT22;1333;50.958;6.770;2023-07-29T11:08:30;32.60;90.30
2647;DHT22;1333;50.958;6.770;2023-07-29T11:11:07;32.60;80.00
2647;DHT22;1333;50.958;6.770;2023-07-29T11:13:35;32.20;75.30
2647;DHT22;1333;50.958;6.770;2023-07-29T11:16:02;32.80;73.50
2647;DHT22;1333;50.958;6.770;2023-07-29T11:18:29;33.80;66.10
2647;DHT22;1333;50.958;6.770;2023-07-29T11:20:55;34.50;63.40
2647;DHT22;1333;50.958;6.770;2023-07-29T11:23:27;35.50;58.10
2647;DHT22;1333;50.958;6.770;2023-07-29T11:25:54;37.00;56.50
2647;DHT22;1333;50.958;6.770;2023-07-29T11:28:20;38.80;53.00
2647;DHT22;1333;50.958;6.770;2023-07-29T11:30:45;40.60;49.90
2647;DHT22;1333;50.958;6.770;2023-07-29T11:33:11;41.80;46.00
2647;DHT22;1333;50.958;6.770;2023-07-29T11:35:37;41.80;42.80
2647;DHT22;1333;50.958;6.770;2023-07-29T11:38:03;42.30;41.20
2647;DHT22;1333;50.958;6.770;2023-07-29T11:40:29;43.30;41.60
2647;DHT22;1333;50.958;6.770;2023-07-29T11:42:54;44.40;39.50
2647;DHT22;1333;50.958;6.770;2023-07-29T11:45:21;45.00;36.70
2647;DHT22;1333;50.958;6.770;2023-07-29T11:47:47;43.60;36.60
2647;DHT22;1333;50.958;6.770;2023-07-29T11:50:13;42.30;36.90
2647;DHT22;1333;50.958;6.770;2023-07-29T11:52:41;40.90;37.80
2647;DHT22;1333;50.958;6.770;2023-07-29T11:55:08;39.60;38.50
2647;DHT22;1333;50.958;6.770;2023-07-29T11:57:38;38.70;40.10
2647;DHT22;1333;50.958;6.770;2023-07-29T12:00:05;37.70;40.80
2647;DHT22;1333;50.958;6.770;2023-07-29T12:02:32;36.80;42.80
2647;DHT22;1333;50.958;6.770;2023-07-29T12:04:58;36.60;42.80
2647;DHT22;1333;50.958;6.770;2023-07-29T12:07:24;36.20;43.40
2647;DHT22;1333;50.958;6.770;2023-07-29T12:09:50;35.60;44.30
2647;DHT22;1333;50.958;6.770;2023-07-29T12:12:17;34.70;45.60
2647;DHT22;1333;50.958;6.770;2023-07-29T12:14:44;34.30;47.30
2647;DHT22;1333;50.958;6.770;2023-07-29T12:17:11;34.10;48.40
2647;DHT22;1333;50.958;6.770;2023-07-29T12:19:38;33.20;48.20
2647;DHT22;1333;50.958;6.770;2023-07-29T12:22:05;32.50;49.80
2647;DHT22;1333;50.958;6.770;2023-07-29T12:24:32;32.00;50.80
2647;DHT22;1333;50.958;6.770;2023-07-29T12:26:58;32.40;52.30
2647;DHT22;1333;50.958;6.770;2023-07-29T12:29:24;33.70;50.60
2647;DHT22;1333;50.958;6.770;2023-07-29T12:32:00;34.70;50.70
2647;DHT22;1333;50.958;6.770;2023-07-29T12:34:27;37.20;49.90
2647;DHT22;1333;50.958;6.770;2023-07-29T12:36:57;39.50;44.50
2647;DHT22;1333;50.958;6.770;2023-07-29T12:39:26;39.70;42.10
2647;DHT22;1333;50.958;6.770;2023-07-29T12:41:53;38.50;41.20
2647;DHT22;1333;50.958;6.770;2023-07-29T12:44:19;36.70;41.90
2647;DHT22;1333;50.958;6.770;2023-07-29T12:46:45;35.10;44.20
2647;DHT22;1333;50.958;6.770;2023-07-29T12:49:10;33.90;45.90
2647;DHT22;1333;50.958;6.770;2023-07-29T12:51:36;32.70;47.60
2647;DHT22;1333;50.958;6.770;2023-07-29T12:54:03;31.90;49.10
2647;DHT22;1333;50.958;6.770;2023-07-29T12:56:32;31.60;51.40
2647;DHT22;1333;50.958;6.770;2023-07-29T12:58:59;31.30;52.00
2647;DHT22;1333;50.958;6.770;2023-07-29T13:01:25;31.80;52.80
2647;DHT22;1333;50.958;6.770;2023-07-29T13:03:51;32.10;51.80
2647;DHT22;1333;50.958;6.770;2023-07-29T13:06:16;31.90;52.00
2647;DHT22;1333;50.958;6.770;2023-07-29T13:08:43;31.50;52.00
2647;DHT22;1333;50.958;6.770;2023-07-29T13:11:09;31.00;53.20
2647;DHT22;1333;50.958;6.770;2023-07-29T13:13:34;30.30;54.10
2647;DHT22;1333;50.958;6.770;2023-07-29T13:16:00;29.60;54.80
2647;DHT22;1333;50.958;6.770;2023-07-29T13:18:26;28.80;56.00
2647;DHT22;1333;50.958;6.770;2023-07-29T13:20:53;28.00;58.40
2647;DHT22;1333;50.958;6.770;2023-07-29T13:23:19;27.50;61.80
2647;DHT22;1333;50.958;6.770;2023-07-29T13:25:44;26.90;67.70
2647;DHT22;1333;50.958;6.770;2023-07-29T13:28:10;26.30;79.40
2647;DHT22;1333;50.958;6.770;2023-07-29T13:30:36;25.90;93.20
2647;DHT22;1333;50.958;6.770;2023-07-29T13:33:02;25.50;99.90
2647;DHT22;1333;50.958;6.770;2023-07-29T13:35:29;25.10;99.90
2647;DHT22;1333;50.958;6.770;2023-07-29T13:37:55;24.70;99.90
2647;DHT22;1333;50.958;6.770;2023-07-29T13:40:20;24.40;99.90
2647;DHT22;1333;50.958;6.770;2023-07-29T13:42:46;24.00;99.90
2647;DHT22;1333;50.958;6.770;2023-07-29T13:45:11;23.70;99.90
2647;DHT22;1333;50.958;6.770;2023-07-29T13:47:37;23.40;99.90
2647;DHT22;1333;50.958;6.770;2023-07-29T13:50:03;23.10;99.90
2647;DHT22;1333;50.958;6.770;2023-07-29T13:52:29;22.90;99.90
2647;DHT22;1333;50.958;6.770;2023-07-29T13:54:54;22.70;99.90
2647;DHT22;1333;50.958;6.770;2023-07-29T13:57:20;22.70;99.90
2647;DHT22;1333;50.958;6.770;2023-07-29T13:59:45;22.70;99.90
2647;DHT22;1333;50.958;6.770;2023-07-29T14:02:11;22.80;99.90
2647;DHT22;1333;50.958;6.770;2023-07-29T14:04:36;22.90;99.90
2647;DHT22;1333;50.958;6.770;2023-07-29T14:07:02;23.20;99.90
2647;DHT22;1333;50.958;6.770;2023-07-29T14:09:27;23.40;99.90
2647;DHT22;1333;50.958;6.770;2023-07-29T14:11:56;23.70;99.90
2647;DHT22;1333;50.958;6.770;2023-07-29T14:14:21;23.80;99.90
2647;DHT22;1333;50.958;6.770;2023-07-29T14:16:47;24.00;99.90
2647;DHT22;1333;50.958;6.770;2023-07-29T14:19:13;24.30;99.90
2647;DHT22;1333;50.958;6.770;2023-07-29T14:21:38;24.60;99.90
2647;DHT22;1333;50.958;6.770;2023-07-29T14:24:05;24.90;99.90
2647;DHT22;1333;50.958;6.770;2023-07-29T14:26:30;25.20;99.90
2647;DHT22;1333;50.958;6.770;2023-07-29T14:28:56;25.50;99.90
2647;DHT22;1333;50.958;6.770;2023-07-29T14:31:21;25.50;99.90
2647;DHT22;1333;50.958;6.770;2023-07-29T14:33:47;25.40;99.90
2647;DHT22;1333;50.958;6.770;2023-07-29T14:36:14;25.50;99.90
2647;DHT22;1333;50.958;6.770;2023-07-29T14:38:40;25.40;99.90
2647;DHT22;1333;50.958;6.770;2023-07-29T14:41:05;25.00;99.90
2647;DHT22;1333;50.958;6.770;2023-07-29T14:43:31;24.80;99.90
2647;DHT22;1333;50.958;6.770;2023-07-29T14:45:57;24.60;99.90
2647;DHT22;1333;50.958;6.770;2023-07-29T14:48:23;24.50;99.90
2647;DHT22;1333;50.958;6.770;2023-07-29T14:50:49;24.50;99.90
2647;DHT22;1333;50.958;6.770;2023-07-29T14:53:14;24.50;99.90
2647;DHT22;1333;50.958;6.770;2023-07-29T14:55:40;24.50;99.90
2647;DHT22;1333;50.958;6.770;2023-07-29T14:58:05;24.40;99.90
2647;DHT22;1333;50.958;6.770;2023-07-29T15:00:31;24.20;99.90
2647;DHT22;1333;50.958;6.770;2023-07-29T15:02:57;23.90;99.90
2647;DHT22;1333;50.958;6.770;2023-07-29T15:05:22;23.80;99.90
2647;DHT22;1333;50.958;6.770;2023-07-29T15:07:48;23.80;99.90
2647;DHT22;1333;50.958;6.770;2023-07-29T15:10:14;23.90;99.90
2647;DHT22;1333;50.958;6.770;2023-07-29T15:12:41;24.00;99.90
2647;DHT22;1333;50.958;6.770;2023-07-29T15:15:07;24.30;99.90
2647;DHT22;1333;50.958;6.770;2023-07-29T15:17:33;24.60;99.90
2647;DHT22;1333;50.958;6.770;2023-07-29T15:19:58;24.90;99.90
2647;DHT22;1333;50.958;6.770;2023-07-29T15:22:24;25.00;99.90
2647;DHT22;1333;50.958;6.770;2023-07-29T15:24:49;25.00;99.90
2647;DHT22;1333;50.958;6.770;2023-07-29T15:27:15;25.00;99.90
2647;DHT22;1333;50.958;6.770;2023-07-29T15:29:40;25.00;99.90
2647;DHT22;1333;50.958;6.770;2023-07-29T15:32:06;25.00;99.90
2647;DHT22;1333;50.958;6.770;2023-07-29T15:34:32;25.10;99.90
2647;DHT22;1333;50.958;6.770;2023-07-29T15:36:58;25.30;99.90
2647;DHT22;1333;50.958;6.770;2023-07-29T15:39:23;25.20;99.90
2647;DHT22;1333;50.958;6.770;2023-07-29T15:41:49;25.00;99.90
2647;DHT22;1333;50.958;6.770;2023-07-29T15:44:15;24.80;99.90
2647;DHT22;1333;50.958;6.770;2023-07-29T15:46:40;24.60;99.90
2647;DHT22;1333;50.958;6.770;2023-07-29T15:49:07;24.40;99.90
2647;DHT22;1333;50.958;6.770;2023-07-29T15:51:34;24.20;99.90
2647;DHT22;1333;50.958;6.770;2023-07-29T15:54:00;24.20;99.90
2647;DHT22;1333;50.958;6.770;2023-07-29T15:56:27;24.10;99.90
2647;DHT22;1333;50.958;6.770;2023-07-29T15:58:53;24.00;99.90
2647;DHT22;1333;50.958;6.770;2023-07-29T16:01:19;23.90;99.90
2647;DHT22;1333;50.958;6.770;2023-07-29T16:03:45;23.80;99.90
2647;DHT22;1333;50.958;6.770;2023-07-29T16:06:10;23.60;99.90